createdAt,value
2023-10-17T00:00:27.246Z,5.1
2023-10-17T00:02:29.287Z,5.9
2023-10-17T00:04:31.396Z,3.5
2023-10-17T00:06:33.092Z,3.6
2023-10-17T00:08:35.000Z,3.8
2023-10-17T00:10:36.974Z,4.2
2023-10-17T00:12:38.889Z,4.4
2023-10-17T00:14:44.080Z,4.6
2023-10-17T00:16:46.026Z,4.9
2023-10-17T00:18:48.007Z,4.2
2023-10-17T00:22:51.893Z,4.9
2023-10-17T00:24:53.806Z,4.5
2023-10-17T00:26:55.804Z,4.9
2023-10-17T00:29:00.924Z,5.5
2023-10-17T00:31:02.911Z,5.7
2023-10-17T00:33:04.918Z,4.4
2023-10-17T00:35:06.769Z,4.4
2023-10-17T00:37:08.723Z,4.8
2023-10-17T00:39:10.739Z,5.4
2023-10-17T00:43:17.822Z,4.6
2023-10-17T00:45:19.837Z,6.2
2023-10-17T00:48:25.965Z,5.3
2023-10-17T00:50:27.768Z,4.5
2023-10-17T00:54:31.714Z,5
2023-10-17T00:56:36.844Z,5.1
2023-10-17T00:58:38.764Z,4.8
2023-10-17T01:00:40.814Z,5.8
2023-10-17T01:02:42.683Z,5.5
2023-10-17T01:04:44.588Z,5.1
2023-10-17T01:06:46.642Z,5.3
2023-10-17T01:08:48.504Z,5.7
2023-10-17T01:10:53.642Z,5
2023-10-17T01:12:55.795Z,5.2
2023-10-17T01:14:57.560Z,4.4
2023-10-17T01:16:59.525Z,4.7
2023-10-17T01:19:01.426Z,4.8
2023-10-17T01:21:03.383Z,5.8
2023-10-17T01:23:05.392Z,5.8
2023-10-17T01:25:10.507Z,6.3
2023-10-17T01:35:20.244Z,5.6
2023-10-17T01:37:22.191Z,5.7
2023-10-17T01:41:29.311Z,5.7
2023-10-17T01:46:00.146Z,5
2023-10-17T01:48:02.247Z,5.7
2023-10-17T01:50:04.006Z,4.4
2023-10-17T01:52:09.176Z,5.5
2023-10-17T01:54:11.163Z,4.9
2023-10-17T01:56:13.069Z,4.8
2023-10-17T02:02:18.977Z,5.1
2023-10-17T02:08:27.999Z,5.5
2023-10-17T02:34:59.683Z,4.9
2023-10-17T02:37:01.996Z,4.9
2023-10-17T02:39:03.571Z,5.4
2023-10-17T02:40:06.156Z,5.1
2023-10-17T02:42:08.931Z,6
2023-10-17T02:44:10.014Z,4.2
2023-10-17T02:46:11.967Z,6.2
2023-10-17T02:48:17.173Z,5.3
2023-10-17T02:50:19.039Z,5.7
2023-10-17T02:56:24.877Z,6.1
2023-10-17T02:58:26.788Z,5
2023-10-17T03:00:28.752Z,5.5
2023-10-17T03:02:33.894Z,6.1
2023-10-17T03:04:35.860Z,4.7
2023-10-17T03:06:37.747Z,5.7
2023-10-17T03:08:39.689Z,5
2023-10-17T03:10:41.632Z,5.8
2023-10-17T03:12:43.592Z,4.3
2023-10-17T03:14:45.673Z,5.8
2023-10-17T03:16:50.655Z,4.8
2023-10-17T03:18:52.601Z,5.1
2023-10-17T03:20:54.543Z,5.4
2023-10-17T03:22:56.481Z,5.5
2023-10-17T03:27:00.380Z,6
2023-10-17T03:29:02.286Z,5
2023-10-17T03:31:07.458Z,6
2023-10-17T03:33:09.510Z,5.6
2023-10-17T03:35:11.292Z,4.9
2023-10-17T03:40:17.769Z,7.1
2023-10-17T03:42:19.774Z,5.3
2023-10-17T03:44:24.868Z,5.3
2023-10-17T03:46:27.219Z,4.9
2023-10-17T03:52:32.722Z,6.6
2023-10-17T03:56:36.496Z,6.5
2023-10-17T04:10:53.325Z,7
2023-10-17T04:12:58.508Z,5.7
2023-10-17T04:15:00.559Z,6.4
2023-10-17T04:17:02.381Z,6
2023-10-17T04:19:04.396Z,6
2023-10-17T04:21:07.637Z,5.2
2023-10-17T04:23:08.153Z,5.9
2023-10-17T04:25:10.102Z,5.3
2023-10-17T04:27:15.288Z,6.7
2023-10-17T04:29:17.179Z,6.7
2023-10-17T04:31:19.186Z,6
2023-10-17T04:38:27.531Z,6.5
2023-10-17T04:50:42.380Z,5.6
2023-10-17T04:54:49.471Z,5.5
2023-10-17T04:58:53.342Z,5.5
2023-10-17T05:07:01.145Z,6.5
2023-10-17T05:09:06.295Z,6.1
2023-10-17T05:11:08.238Z,6.3
2023-10-17T05:13:10.151Z,5.9
2023-10-17T05:25:25.019Z,6
2023-10-17T05:27:26.956Z,6.2
2023-10-17T05:33:59.742Z,6.2
2023-10-17T05:36:04.919Z,7.5
2023-10-17T05:38:06.842Z,6.4
2023-10-17T05:40:08.781Z,7.2
2023-10-17T05:42:10.749Z,7.2
2023-10-17T05:44:12.684Z,6.8
2023-10-17T05:48:16.613Z,7.2
2023-10-17T05:50:21.698Z,7
2023-10-17T05:52:23.626Z,6.7
2023-10-17T05:58:29.388Z,6.8
2023-10-17T06:00:31.395Z,8.2
2023-10-17T06:02:33.269Z,7
2023-10-17T06:04:38.624Z,7.8
2023-10-17T06:06:40.373Z,7.8
2023-10-17T06:08:42.262Z,7.9
2023-10-17T06:10:44.174Z,8
2023-10-17T06:24:01.549Z,10
2023-10-17T06:26:03.494Z,7.5
2023-10-17T06:28:05.445Z,8.6
2023-10-17T06:30:07.396Z,7.9
2023-10-17T06:32:12.856Z,7.5
2023-10-17T06:34:14.777Z,8.9
2023-10-17T06:36:16.749Z,9.7
2023-10-17T06:40:22.107Z,9.7
2023-10-17T06:42:24.023Z,7.9
2023-10-17T07:12:59.373Z,10.5
2023-10-17T07:15:04.546Z,11.8
2023-10-17T07:17:06.450Z,10.9
2023-10-17T07:19:08.584Z,12
2023-10-17T07:24:14.872Z,11
2023-10-17T07:26:16.798Z,12
2023-10-17T07:28:21.983Z,13.6
2023-10-17T07:30:23.950Z,12.6
2023-10-17T07:32:25.888Z,11.2
2023-10-17T07:36:29.787Z,12.8
2023-10-17T07:38:31.643Z,13.8
2023-10-17T07:40:33.599Z,12.1
2023-10-17T07:42:38.766Z,12.6
2023-10-17T07:50:46.501Z,13.3
2023-10-17T07:52:48.458Z,12.1
2023-10-17T07:56:55.570Z,13.9
2023-10-17T07:58:57.559Z,13.8
2023-10-17T08:00:59.597Z,11.1
2023-10-17T08:03:01.493Z,11.2
2023-10-17T08:05:03.370Z,9.2
2023-10-17T08:07:05.314Z,9.1
2023-10-17T08:09:07.346Z,9.6
2023-10-17T08:11:12.469Z,8.7
2023-10-17T08:15:16.344Z,7.8
2023-10-17T08:16:18.961Z,6.2
2023-10-17T08:18:21.039Z,6.7
2023-10-17T08:36:41.800Z,3.8
2023-10-17T08:40:48.934Z,3
2023-10-17T08:44:52.881Z,3.8
2023-10-17T08:48:56.816Z,3.3
2023-10-17T08:50:58.776Z,3.1
2023-10-17T08:59:09.875Z,2.7
2023-10-17T09:01:12.173Z,3.3
2023-10-17T09:07:20.892Z,1.9
2023-10-17T09:09:22.965Z,2
2023-10-17T09:11:24.874Z,3.4
2023-10-17T09:13:53.740Z,2.8
2023-10-17T09:15:55.716Z,2.2
2023-10-17T09:17:57.720Z,2.3
2023-10-17T09:20:02.911Z,3.6
2023-10-17T09:24:06.870Z,1.5
2023-10-17T09:26:09.111Z,1.8
2023-10-17T09:28:10.791Z,2.1
2023-10-17T09:30:12.873Z,1.7
2023-10-17T09:32:14.771Z,1.7
2023-10-17T09:34:20.022Z,2
2023-10-17T09:36:22.048Z,1.8
2023-10-17T09:38:23.827Z,1
2023-10-17T09:40:25.840Z,1.3
2023-10-17T09:42:27.844Z,1.2
2023-10-17T09:44:29.906Z,1.9
2023-10-17T09:46:31.880Z,1.5
2023-10-17T09:48:37.136Z,1.5
2023-10-17T09:50:39.293Z,2
2023-10-17T09:52:40.895Z,1.7
2023-10-17T09:54:42.885Z,0.6
2023-10-17T09:56:44.859Z,0.9
2023-10-17T09:58:46.825Z,1.2
2023-10-17T10:00:48.866Z,1.2
2023-10-17T10:03:04.726Z,1.1
2023-10-17T10:06:57.999Z,1.1
2023-10-17T10:08:00.621Z,1.4
2023-10-17T10:10:02.614Z,1.6
2023-10-17T10:12:04.564Z,1.1
2023-10-17T10:14:06.429Z,2.7
2023-10-17T10:16:11.668Z,1.1
2023-10-17T10:18:13.673Z,1.1
2023-10-17T10:20:15.638Z,1
2023-10-17T10:24:19.803Z,1
2023-10-17T10:28:23.571Z,1.2
2023-10-17T10:32:30.829Z,1
2023-10-17T10:34:32.784Z,0.2
2023-10-17T10:36:34.722Z,0.8
2023-10-17T10:40:38.460Z,1
2023-10-17T10:52:54.721Z,1
2023-10-17T10:56:57.404Z,0.8
2023-10-17T10:59:02.676Z,0.6
2023-10-17T11:01:04.641Z,1
2023-10-17T11:03:06.416Z,0.7
2023-10-17T11:04:09.250Z,0.4
2023-10-17T11:10:14.780Z,1.4
2023-10-17T11:12:19.918Z,1
2023-10-17T11:26:36.743Z,1.5
2023-10-17T11:28:38.741Z,1.3
2023-10-17T11:36:46.605Z,0.9
2023-10-17T11:44:57.649Z,1
2023-10-17T11:49:01.621Z,1.1
2023-10-17T11:53:05.588Z,1
2023-10-17T11:55:13.589Z,0.8
2023-10-17T11:57:12.833Z,1.1
2023-10-17T11:59:14.703Z,1.1
2023-10-17T12:00:17.478Z,1.2
2023-10-17T12:02:19.212Z,1
2023-10-17T12:04:21.204Z,1.8
2023-10-17T12:10:32.200Z,1
2023-10-17T12:12:31.905Z,1.2
2023-10-17T12:14:33.755Z,0.9
2023-10-17T12:16:35.715Z,1
2023-10-17T12:32:55.854Z,1.8
2023-10-17T12:34:57.632Z,1.3
2023-10-17T12:37:02.764Z,2
2023-10-17T12:39:04.658Z,1.2
2023-10-17T12:41:06.511Z,1.5
2023-10-17T12:43:08.408Z,1.3
2023-10-17T12:45:10.286Z,1.6
2023-10-17T12:47:12.168Z,2
2023-10-17T12:51:19.139Z,1.8
2023-10-17T12:53:20.956Z,1.3
2023-10-17T12:55:22.811Z,0.6
2023-10-17T12:57:51.452Z,1.6
2023-10-17T12:59:53.279Z,1.3
2023-10-17T13:04:00.414Z,1.6
2023-10-17T13:06:02.050Z,1.1
2023-10-17T13:08:03.914Z,1.3
2023-10-17T13:10:05.782Z,1.2
2023-10-17T13:14:09.533Z,1
2023-10-17T13:16:13.308Z,1.4
2023-10-17T13:18:16.595Z,1
2023-10-17T13:20:22.018Z,1.4
2023-10-17T13:24:22.048Z,1.3
2023-10-17T13:30:27.714Z,1.4
2023-10-17T13:51:55.051Z,1.1
2023-10-17T13:53:56.818Z,0.8
2023-10-17T13:58:00.489Z,1.9
2023-10-17T14:00:05.495Z,1.6
2023-10-17T14:02:07.328Z,0.9
2023-10-17T14:04:09.229Z,1.1
2023-10-17T14:08:12.864Z,1.1
2023-10-17T14:10:14.698Z,3.4
2023-10-17T14:12:16.572Z,1
2023-10-17T14:14:21.538Z,1.4
2023-10-17T14:18:25.262Z,0.6
2023-10-17T14:20:27.084Z,0.8
2023-10-17T14:22:28.955Z,0.9
2023-10-17T14:24:30.805Z,0.9
2023-10-17T14:26:32.631Z,1
2023-10-17T14:28:37.636Z,1
2023-10-17T14:30:39.536Z,0.9
2023-10-17T14:32:41.363Z,1
2023-10-17T14:36:45.120Z,1
2023-10-17T14:38:46.896Z,1.2
2023-10-17T14:40:48.756Z,1
2023-10-17T14:42:53.806Z,1.4
2023-10-17T14:46:57.542Z,1.3
2023-10-17T14:48:00.052Z,1.7
2023-10-17T14:52:03.786Z,1.5
2023-10-17T14:54:05.664Z,1.1
2023-10-17T14:56:10.679Z,1.3
2023-10-17T14:58:12.532Z,1.7
2023-10-17T15:00:14.441Z,1.1
2023-10-17T15:02:16.434Z,1.1
2023-10-17T15:04:18.318Z,1.2
2023-10-17T15:10:27.272Z,2.4
2023-10-17T15:16:32.773Z,1.2
2023-10-17T15:20:36.556Z,1.2
2023-10-17T15:22:38.527Z,1.3
2023-10-17T15:24:43.602Z,1.8
2023-10-17T15:26:45.424Z,1.3
2023-10-17T15:28:47.328Z,1.7
2023-10-17T15:30:49.404Z,1.1
2023-10-17T15:32:51.207Z,2.2
2023-10-17T15:36:55.060Z,1.6
2023-10-17T15:38:59.967Z,0.7
2023-10-17T15:43:03.861Z,1.8
2023-10-17T15:44:06.371Z,1.3
2023-10-17T15:46:08.467Z,1.9
2023-10-17T15:48:10.275Z,1.2
2023-10-17T15:50:12.216Z,1.4
2023-10-17T15:52:17.451Z,1.4
2023-10-17T15:54:19.419Z,2
2023-10-17T15:56:21.210Z,1.7
2023-10-17T16:00:25.232Z,1.4
2023-10-17T16:16:44.436Z,1.3
2023-10-17T16:18:46.428Z,1.2
2023-10-17T16:28:59.493Z,1.5
2023-10-17T16:33:03.513Z,1.8
2023-10-17T16:37:10.681Z,2.1
2023-10-17T16:39:12.652Z,1.3
2023-10-17T16:41:41.532Z,1.8
2023-10-17T16:43:43.585Z,2.5
2023-10-17T16:45:45.588Z,1.8
2023-10-17T16:47:50.799Z,2.1
2023-10-17T16:49:52.750Z,2.8
2023-10-17T16:51:54.777Z,2.6
2023-10-17T16:55:58.727Z,2.1
2023-10-17T17:00:09.754Z,2.2
2023-10-17T17:02:07.886Z,1.2
2023-10-17T17:04:09.899Z,2.1
2023-10-17T17:06:11.853Z,1.7
2023-10-17T17:08:13.838Z,2.2
2023-10-17T17:12:17.797Z,2.9
2023-10-17T17:14:19.805Z,2.2
2023-10-17T17:16:25.064Z,2.4
2023-10-17T17:18:44.268Z,2.2
2023-10-17T17:20:29.012Z,3
2023-10-17T17:26:34.949Z,2.4
2023-10-17T17:32:44.179Z,3.8
2023-10-17T17:34:46.137Z,5.3
2023-10-17T17:35:48.748Z,2.9
2023-10-17T17:37:50.705Z,2.7
2023-10-17T17:41:54.677Z,3.6
2023-10-17T17:43:59.864Z,3.7
2023-10-17T17:46:02.003Z,2.9
2023-10-17T17:48:03.883Z,3.3
2023-10-17T17:50:05.831Z,3.3
2023-10-17T17:52:07.805Z,4.1
2023-10-17T17:54:09.807Z,3.3
2023-10-17T17:56:11.762Z,4.5
2023-10-17T17:58:16.980Z,3.7
2023-10-17T18:16:38.030Z,4.5
2023-10-17T18:18:40.068Z,3.1
2023-10-17T18:20:41.958Z,3.6
2023-10-17T18:28:54.644Z,3.4
2023-10-17T18:44:14.303Z,4.9
2023-10-17T18:46:16.320Z,4.7
2023-10-17T18:48:18.237Z,4.7
2023-10-17T18:50:20.194Z,4.7
2023-10-17T18:52:22.214Z,4.4
2023-10-17T18:54:27.438Z,4.7
2023-10-17T18:56:29.351Z,5.4
2023-10-17T18:58:31.320Z,4.7
2023-10-17T19:00:33.346Z,5
2023-10-17T19:02:35.258Z,5.6
2023-10-17T19:04:37.267Z,4.5
2023-10-17T19:06:39.464Z,5
2023-10-17T19:08:44.448Z,6
2023-10-17T19:20:56.296Z,5.3
2023-10-17T19:23:01.506Z,6.1
2023-10-17T19:25:03.518Z,6.1
2023-10-17T19:27:05.446Z,5
2023-10-17T19:30:10.031Z,5.6
2023-10-17T19:34:14.017Z,5
2023-10-17T19:38:21.131Z,5.7
2023-10-17T19:40:24.245Z,5.5
2023-10-17T19:42:25.083Z,5
2023-10-17T19:46:29.105Z,6.9
2023-10-17T19:48:30.992Z,7.3
2023-10-17T19:50:36.179Z,7.5
2023-10-17T19:52:38.180Z,6
2023-10-17T19:56:42.133Z,7.3
2023-10-17T19:58:44.083Z,5.5
2023-10-17T20:00:46.113Z,7
2023-10-17T20:02:48.106Z,7.3
2023-10-17T20:04:53.217Z,5.8
2023-10-17T20:08:57.181Z,6.2
2023-10-17T20:10:59.171Z,8
2023-10-17T20:13:01.145Z,7.2
2023-10-17T20:15:03.094Z,6.7
2023-10-17T20:17:05.044Z,8
2023-10-17T20:19:10.331Z,7.7
2023-10-17T20:23:14.231Z,7.9
2023-10-17T20:25:43.120Z,7.7
2023-10-17T20:35:56.220Z,7.8
2023-10-17T20:37:58.199Z,9.4
2023-10-17T20:46:09.357Z,8.6
2023-10-17T20:48:11.301Z,8.7
2023-10-17T20:50:13.221Z,8.9
2023-10-17T20:52:15.220Z,10.1
2023-10-17T20:54:17.150Z,8.3
2023-10-17T20:56:34.033Z,8.6
2023-10-17T20:58:21.085Z,9.5
2023-10-17T21:00:26.295Z,10.2
2023-10-17T21:02:28.277Z,8.1
2023-10-17T21:06:32.232Z,10.3
2023-10-17T21:08:34.145Z,10
2023-10-17T21:12:38.124Z,9.6
2023-10-17T21:14:43.293Z,9.7
2023-10-17T21:16:45.312Z,10.7
2023-10-17T21:19:49.842Z,10.7
2023-10-17T21:21:51.921Z,10.3
2023-10-17T21:23:53.774Z,9.9
2023-10-17T21:25:55.752Z,9.5
2023-10-17T21:28:01.044Z,10.5
2023-10-17T21:30:02.920Z,10.4
2023-10-17T21:34:06.885Z,12.5
2023-10-17T21:38:10.793Z,12.7
2023-10-17T21:46:21.896Z,11.6
2023-10-17T21:56:34.892Z,10.3
2023-10-17T22:00:38.864Z,13.5
2023-10-17T22:02:40.849Z,12.8
2023-10-17T22:08:46.861Z,12
2023-10-17T22:10:51.832Z,14.1
2023-10-17T22:15:58.426Z,13.4
2023-10-17T22:18:00.342Z,11.1
2023-10-17T22:22:04.283Z,13.2
2023-10-17T22:24:09.411Z,13.1
2023-10-17T22:26:11.364Z,13.2
2023-10-17T22:28:13.333Z,12.5
2023-10-17T22:30:15.314Z,14.1
2023-10-17T22:34:19.211Z,13.3
2023-10-17T22:36:21.190Z,12.1
2023-10-17T22:38:26.432Z,12.5
2023-10-17T22:46:34.175Z,11.7
2023-10-17T22:48:36.139Z,11.7
2023-10-17T22:50:38.082Z,12.8
2023-10-17T22:52:43.285Z,13.2
2023-10-17T23:09:02.076Z,13.9
2023-10-17T23:11:04.063Z,13.4
2023-10-17T23:12:06.651Z,14.5
2023-10-17T23:16:10.591Z,13
2023-10-17T23:20:17.680Z,14.9
2023-10-17T23:22:19.617Z,14.8
2023-10-17T23:26:23.492Z,13.5
2023-10-17T23:28:25.450Z,14.2
2023-10-17T23:30:27.410Z,13.2
2023-10-17T23:32:29.405Z,14.5
2023-10-17T23:36:36.502Z,15.8
2023-10-17T23:38:38.431Z,15.9
2023-10-17T23:40:40.424Z,14.4
2023-10-17T23:48:51.427Z,14.4
2023-10-17T23:56:59.234Z,15.9
